createdAt,value
2019-04-30T00:02:40.062Z,28.27
2019-04-30T00:07:46.264Z,27.83
2019-04-30T00:12:52.237Z,28.17
2019-04-30T00:18:01.743Z,26.27
2019-04-30T00:23:06.455Z,26.77
2019-04-30T00:28:12.462Z,25.70
2019-04-30T00:33:22.272Z,32.40
2019-04-30T00:38:29.578Z,32.45
2019-04-30T00:43:35.365Z,32.95
2019-04-30T00:48:41.657Z,25.27
2019-04-30T00:53:51.382Z,27.20
2019-04-30T00:58:57.740Z,25.47
2019-04-30T01:04:24.524Z,25.17
2019-04-30T01:09:30.003Z,24.03
2019-04-30T01:14:36.088Z,22.97
2019-04-30T01:19:45.928Z,21.87
2019-04-30T01:24:49.814Z,22.90
2019-04-30T01:29:55.947Z,19.23
2019-04-30T01:35:01.972Z,22.33
2019-04-30T01:40:13.550Z,16.63
2019-04-30T01:45:16.077Z,19.60
2019-04-30T01:50:22.035Z,20.80
2019-04-30T01:55:49.441Z,19.60
2019-04-30T02:00:59.386Z,20.30
2019-04-30T02:06:05.661Z,17.50
2019-04-30T02:11:11.521Z,19.03
2019-04-30T02:16:18.774Z,19.67
2019-04-30T02:21:25.106Z,19.13
2019-04-30T02:26:30.958Z,17.47
2019-04-30T02:31:36.725Z,17.80
2019-04-30T02:36:51.920Z,15.87
2019-04-30T02:41:59.925Z,16.97
2019-04-30T02:47:10.008Z,15.83
2019-04-30T02:52:19.415Z,15.60
2019-04-30T02:57:24.226Z,16.67
2019-04-30T03:02:30.930Z,15.17
2019-04-30T03:07:36.982Z,14.53
2019-04-30T03:12:42.961Z,18.20
2019-04-30T03:17:55.383Z,16.70
2019-04-30T03:23:02.449Z,21.12
2019-04-30T03:28:09.716Z,17.37
2019-04-30T03:33:15.645Z,18.10
2019-04-30T03:38:21.647Z,15.50
2019-04-30T03:43:30.061Z,15.37
2019-04-30T03:48:35.358Z,15.53
2019-04-30T03:53:42.712Z,17.43
2019-04-30T03:58:50.304Z,16.67
2019-04-30T04:04:13.917Z,16.87
2019-04-30T04:09:29.994Z,17.47
2019-04-30T04:14:36.037Z,16.40
2019-04-30T04:19:41.903Z,15.43
2019-04-30T04:24:50.348Z,16.23
2019-04-30T04:29:56.799Z,16.27
2019-04-30T04:35:02.871Z,16.27
2019-04-30T04:40:09.363Z,16.83
2019-04-30T04:45:19.810Z,18.00
2019-04-30T04:50:30.022Z,16.27
2019-04-30T04:55:34.890Z,17.63
2019-04-30T05:00:41.056Z,18.33
2019-04-30T05:05:49.774Z,18.37
2019-04-30T05:10:55.164Z,17.13
2019-04-30T05:16:01.309Z,16.20
2019-04-30T05:21:08.865Z,17.07
2019-04-30T05:26:15.126Z,16.43
2019-04-30T05:31:21.259Z,17.40
2019-04-30T05:36:29.069Z,17.50
2019-04-30T05:41:35.265Z,17.17
2019-04-30T05:46:41.137Z,16.07
2019-04-30T05:51:53.637Z,16.00
2019-04-30T05:56:54.423Z,12.67
2019-04-30T06:02:00.314Z,13.70
2019-04-30T06:07:06.277Z,13.03
2019-04-30T06:12:34.048Z,13.10
2019-04-30T06:17:40.079Z,12.13
2019-04-30T06:22:46.125Z,13.80
2019-04-30T06:27:54.039Z,13.47
2019-04-30T06:33:01.015Z,13.77
2019-04-30T06:38:08.580Z,14.20
2019-04-30T06:43:15.047Z,13.30
2019-04-30T06:48:22.311Z,13.87
2019-04-30T06:53:29.218Z,12.17
2019-04-30T06:58:35.617Z,13.80
2019-04-30T07:03:41.590Z,13.03
2019-04-30T07:09:12.385Z,14.40
2019-04-30T07:14:19.529Z,13.93
2019-04-30T07:19:33.010Z,13.43
2019-04-30T07:24:33.341Z,13.00
2019-04-30T07:29:39.347Z,12.70
2019-04-30T07:34:45.390Z,14.37
2019-04-30T07:39:51.609Z,13.10
2019-04-30T07:45:00.423Z,13.00
2019-04-30T07:50:05.917Z,13.73
2019-04-30T07:55:13.880Z,14.20
2019-04-30T08:00:21.282Z,13.77
2019-04-30T08:05:36.328Z,13.87
2019-04-30T08:10:43.108Z,10.77
2019-04-30T08:15:50.752Z,11.60
2019-04-30T08:20:58.684Z,12.47
2019-04-30T08:26:08.708Z,10.90
2019-04-30T08:31:19.532Z,12.60
2019-04-30T08:36:26.592Z,12.60
2019-04-30T08:41:33.495Z,10.00
2019-04-30T08:46:41.383Z,11.20
2019-04-30T08:51:53.351Z,12.80
2019-04-30T08:57:02.391Z,12.57
2019-04-30T09:02:16.533Z,13.13
2019-04-30T09:07:24.483Z,12.93
2019-04-30T09:12:36.422Z,14.13
2019-04-30T09:17:58.914Z,14.00
2019-04-30T09:23:05.466Z,10.97
2019-04-30T09:28:33.103Z,13.33
2019-04-30T09:33:44.480Z,14.10
2019-04-30T09:39:17.002Z,11.80
2019-04-30T09:44:38.633Z,13.78
2019-04-30T09:50:15.947Z,13.53
2019-04-30T09:55:40.556Z,12.70
2019-04-30T10:01:22.572Z,13.70
2019-04-30T10:06:45.238Z,13.68
2019-04-30T10:12:14.401Z,12.55
2019-04-30T10:17:45.737Z,13.25
2019-04-30T10:23:19.400Z,13.38
2019-04-30T10:28:19.642Z,14.90
2019-04-30T10:33:25.819Z,14.90
2019-04-30T10:38:32.183Z,13.40
2019-04-30T10:43:39.372Z,13.13
2019-04-30T10:48:45.629Z,13.68
2019-04-30T10:53:51.559Z,13.90
2019-04-30T10:58:57.835Z,12.00
2019-04-30T11:04:04.616Z,12.65
2019-04-30T11:09:10.684Z,13.68
2019-04-30T11:14:16.542Z,12.58
2019-04-30T11:19:22.739Z,10.23
2019-04-30T11:24:36.596Z,11.75
2019-04-30T11:29:39.369Z,11.48
2019-04-30T11:34:45.580Z,12.00
2019-04-30T11:39:51.689Z,10.58
2019-04-30T11:44:58.689Z,10.05
2019-04-30T11:50:06.889Z,11.18
2019-04-30T11:55:14.499Z,12.43
2019-04-30T12:00:29.724Z,10.20
2019-04-30T12:05:35.969Z,10.03
2019-04-30T12:11:15.953Z,9.23
2019-04-30T12:16:22.010Z,10.20
2019-04-30T12:21:27.970Z,9.33
2019-04-30T12:26:33.954Z,11.65
2019-04-30T12:31:39.871Z,9.83
2019-04-30T12:36:46.009Z,11.55
2019-04-30T12:41:53.100Z,9.40
2019-04-30T12:46:59.073Z,8.60
2019-04-30T12:52:19.656Z,8.85
2019-04-30T12:57:42.958Z,8.40
2019-04-30T13:02:48.935Z,9.28
2019-04-30T13:07:55.256Z,8.95
2019-04-30T13:13:02.086Z,8.58
2019-04-30T13:18:09.523Z,7.25
2019-04-30T13:23:15.522Z,7.95
2019-04-30T13:28:23.096Z,7.17
2019-04-30T13:33:40.312Z,7.03
2019-04-30T13:38:54.090Z,7.17
2019-04-30T13:44:02.564Z,6.45
2019-04-30T13:49:08.797Z,7.15
2019-04-30T13:54:14.512Z,6.58
2019-04-30T13:59:20.634Z,7.05
2019-04-30T14:04:48.215Z,7.47
2019-04-30T14:09:54.337Z,6.92
2019-04-30T14:15:00.213Z,6.25
2019-04-30T14:20:07.151Z,6.35
2019-04-30T14:25:13.691Z,6.65
2019-04-30T14:30:24.871Z,6.92
2019-04-30T14:35:31.744Z,6.55
2019-04-30T14:40:40.157Z,7.37
2019-04-30T14:46:16.315Z,7.45
2019-04-30T14:51:22.868Z,7.28
2019-04-30T14:56:39.455Z,7.22
2019-04-30T15:01:55.644Z,6.58
2019-04-30T15:07:03.790Z,7.10
2019-04-30T15:12:09.841Z,7.58
2019-04-30T15:17:15.794Z,7.45
2019-04-30T15:22:21.886Z,6.62
2019-04-30T15:27:28.950Z,7.42
2019-04-30T15:32:39.590Z,8.33
2019-04-30T15:37:48.675Z,7.53
2019-04-30T15:42:56.891Z,7.85
2019-04-30T15:48:02.918Z,7.75
2019-04-30T15:53:09.473Z,7.35
2019-04-30T15:58:23.425Z,6.75
2019-04-30T16:03:30.660Z,8.00
2019-04-30T16:08:45.096Z,7.55
2019-04-30T16:14:19.294Z,7.05
2019-04-30T16:19:25.379Z,7.22
2019-04-30T16:24:31.256Z,7.45
2019-04-30T16:29:49.836Z,8.35
2019-04-30T16:34:56.079Z,7.95
2019-04-30T16:40:02.053Z,7.55
2019-04-30T16:45:09.278Z,7.08
2019-04-30T16:50:15.720Z,7.65
2019-04-30T16:55:21.392Z,7.22
2019-04-30T17:00:28.826Z,7.00
2019-04-30T17:05:54.609Z,7.47
2019-04-30T17:11:10.775Z,7.83
2019-04-30T17:16:19.570Z,7.78
2019-04-30T17:21:25.891Z,7.33
2019-04-30T17:26:31.890Z,7.85
2019-04-30T17:31:37.890Z,8.60
2019-04-30T17:36:44.121Z,7.95
2019-04-30T17:41:50.368Z,9.03
2019-04-30T17:46:56.566Z,8.70
2019-04-30T17:52:02.590Z,8.15
2019-04-30T17:57:10.590Z,8.53
2019-04-30T18:02:19.474Z,8.90
2019-04-30T18:07:26.013Z,8.43
2019-04-30T18:12:32.066Z,8.60
2019-04-30T18:17:39.691Z,8.80
2019-04-30T18:23:20.034Z,9.80
2019-04-30T18:28:26.486Z,8.70
2019-04-30T18:33:32.552Z,8.10
2019-04-30T18:38:39.144Z,9.35
2019-04-30T18:43:45.434Z,9.45
2019-04-30T18:48:52.840Z,9.73
2019-04-30T18:53:59.201Z,9.10
2019-04-30T18:59:05.284Z,9.98
2019-04-30T19:04:11.237Z,10.25
2019-04-30T19:09:35.523Z,9.18
2019-04-30T19:15:09.425Z,9.60
2019-04-30T19:20:42.979Z,9.90
2019-04-30T19:25:49.616Z,11.20
2019-04-30T19:30:58.270Z,9.98
2019-04-30T19:36:03.297Z,10.65
2019-04-30T19:41:10.827Z,9.93
2019-04-30T19:46:18.778Z,11.33
2019-04-30T19:51:24.974Z,12.95
2019-04-30T19:56:32.821Z,10.98
2019-04-30T20:01:39.089Z,10.20
2019-04-30T20:06:45.069Z,11.03
2019-04-30T20:11:51.144Z,11.28
2019-04-30T20:16:58.982Z,10.13
2019-04-30T20:22:04.747Z,13.53
2019-04-30T20:27:10.631Z,13.27
2019-04-30T20:32:16.726Z,11.80
2019-04-30T20:37:22.870Z,11.03
2019-04-30T20:42:28.821Z,9.55
2019-04-30T20:47:34.886Z,9.13
2019-04-30T20:52:41.113Z,8.25
2019-04-30T20:57:47.219Z,9.53
2019-04-30T21:02:53.444Z,9.43
2019-04-30T21:07:59.409Z,10.08
2019-04-30T21:13:05.609Z,10.28
2019-04-30T21:18:11.594Z,10.40
2019-04-30T21:23:19.451Z,11.28
2019-04-30T21:28:25.166Z,11.45
2019-04-30T21:33:44.707Z,10.93
2019-04-30T21:38:50.602Z,11.68
2019-04-30T21:43:56.913Z,12.50
2019-04-30T21:49:02.770Z,11.43
2019-04-30T21:54:11.744Z,12.05
2019-04-30T21:59:24.169Z,11.48
2019-04-30T22:04:25.333Z,11.50
2019-04-30T22:09:31.164Z,11.03
2019-04-30T22:14:37.248Z,11.43
2019-04-30T22:19:43.126Z,12.40
2019-04-30T22:24:49.661Z,11.95
2019-04-30T22:29:55.788Z,12.13
2019-04-30T22:35:20.816Z,12.15
2019-04-30T22:40:29.119Z,12.35
2019-04-30T22:45:40.614Z,11.53
2019-04-30T22:50:48.045Z,12.13
2019-04-30T22:55:54.548Z,12.18
2019-04-30T23:01:18.287Z,11.80
2019-04-30T23:06:24.354Z,12.25
2019-04-30T23:11:30.314Z,12.23
2019-04-30T23:16:36.162Z,12.05
2019-04-30T23:21:42.206Z,11.65
2019-04-30T23:26:48.185Z,12.63
2019-04-30T23:31:54.086Z,12.65
2019-04-30T23:37:00.253Z,12.28
2019-04-30T23:42:06.542Z,12.20
2019-04-30T23:47:12.700Z,10.72
2019-04-30T23:52:18.587Z,10.90
2019-04-30T23:57:24.563Z,11.12
